createdAt,value
2019-01-14T00:00:59.854Z,93785.09
2019-01-14T00:03:27.431Z,93793.26
2019-01-14T00:05:55.019Z,93793.99
2019-01-14T00:08:22.615Z,93781.09
2019-01-14T00:10:50.056Z,93787.66
2019-01-14T00:13:17.476Z,93776.66
2019-01-14T00:15:45.024Z,93773.70
2019-01-14T00:18:12.791Z,93778.72
2019-01-14T00:20:40.406Z,93780.23
2019-01-14T00:23:07.887Z,93780.56
2019-01-14T00:25:35.473Z,93784.93
2019-01-14T00:28:02.943Z,93784.93
2019-01-14T00:30:30.521Z,93784.06
2019-01-14T00:32:57.960Z,93776.91
2019-01-14T00:35:25.418Z,93776.91
2019-01-14T00:37:52.997Z,93776.44
2019-01-14T00:40:20.418Z,93772.23
2019-01-14T00:42:47.972Z,93772.95
2019-01-14T00:45:15.554Z,93772.84
2019-01-14T00:47:43.090Z,93778.12
2019-01-14T00:50:12.485Z,93779.82
2019-01-14T00:52:40.257Z,93779.66
2019-01-14T00:55:08.374Z,93784.15
2019-01-14T00:57:35.856Z,93784.70
2019-01-14T01:00:07.805Z,93782.14
2019-01-14T01:02:35.368Z,93770.41
2019-01-14T01:05:03.470Z,93774.30
2019-01-14T01:07:31.002Z,93768.48
2019-01-14T01:09:58.520Z,93775.38
2019-01-14T01:12:26.204Z,93775.38
2019-01-14T01:14:53.666Z,93770.95
2019-01-14T01:17:21.136Z,93770.95
2019-01-14T01:19:48.759Z,93761.38
2019-01-14T01:22:16.310Z,93756.13
2019-01-14T01:24:43.840Z,93752.34
2019-01-14T01:27:11.330Z,93754.03
2019-01-14T01:29:38.845Z,93747.92
2019-01-14T01:32:06.363Z,93742.81
2019-01-14T01:34:33.862Z,93731.75
2019-01-14T01:37:01.412Z,93731.75
2019-01-14T01:39:28.983Z,93729.58
2019-01-14T01:41:56.407Z,93732.22
2019-01-14T01:44:24.010Z,93713.16
2019-01-14T01:46:51.689Z,93726.35
2019-01-14T01:49:19.180Z,93726.35
2019-01-14T01:51:46.638Z,93718.12
2019-01-14T01:54:14.231Z,93718.03
2019-01-14T01:56:41.746Z,93721.41
2019-01-14T01:59:09.270Z,93746.86
2019-01-14T02:01:36.735Z,93716.86
2019-01-14T02:04:04.495Z,93711.51
2019-01-14T02:06:39.000Z,93703.41
2019-01-14T02:09:01.587Z,93703.41
2019-01-14T02:11:29.090Z,93696.72
2019-01-14T02:13:56.981Z,93690.26
2019-01-14T02:16:24.599Z,93680.80
2019-01-14T02:18:52.146Z,93681.64
2019-01-14T02:21:19.799Z,93675.50
2019-01-14T02:23:47.390Z,93680.13
2019-01-14T02:26:14.983Z,93676.38
2019-01-14T02:28:42.467Z,93671.12
2019-01-14T02:31:10.360Z,93671.12
2019-01-14T02:33:37.830Z,93644.10
2019-01-14T02:36:05.518Z,93644.10
2019-01-14T02:38:33.116Z,93638.35
2019-01-14T02:41:00.530Z,93635.83
2019-01-14T02:43:28.077Z,93628.80
2019-01-14T02:45:55.492Z,93630.13
2019-01-14T02:48:23.019Z,93626.56
2019-01-14T02:50:50.615Z,93616.36
2019-01-14T02:53:18.099Z,93611.33
2019-01-14T02:55:45.760Z,93603.63
2019-01-14T02:58:13.318Z,93596.55
2019-01-14T03:00:40.905Z,93593.91
2019-01-14T03:03:08.491Z,93596.38
2019-01-14T03:05:36.090Z,93596.38
2019-01-14T03:08:03.776Z,93605.05
2019-01-14T03:10:31.210Z,93607.02
2019-01-14T03:12:58.626Z,93608.59
2019-01-14T03:15:26.152Z,93608.59
2019-01-14T03:17:53.804Z,93598.02
2019-01-14T03:20:21.475Z,93599.42
2019-01-14T03:22:49.088Z,93583.58
2019-01-14T03:25:16.746Z,93583.58
2019-01-14T03:27:44.443Z,93587.27
2019-01-14T03:30:14.924Z,93587.27
2019-01-14T03:32:42.406Z,93571.20
2019-01-14T03:35:10.640Z,93581.89
2019-01-14T03:37:38.200Z,93581.89
2019-01-14T03:40:08.678Z,93577.88
2019-01-14T03:42:36.173Z,93577.88
2019-01-14T03:45:04.344Z,93579.12
2019-01-14T03:47:31.817Z,93569.09
2019-01-14T03:49:59.430Z,93582.36
2019-01-14T03:52:27.002Z,93601.66
2019-01-14T03:54:54.491Z,93610.59
2019-01-14T03:57:22.211Z,93611.36
2019-01-14T03:59:49.667Z,93604.48
2019-01-14T04:02:17.175Z,93608.01
2019-01-14T04:04:44.759Z,93608.01
2019-01-14T04:07:13.789Z,93612.78
2019-01-14T04:09:41.694Z,93611.83
2019-01-14T04:12:09.200Z,93611.83
2019-01-14T04:14:36.817Z,93609.38
2019-01-14T04:17:04.253Z,93600.31
2019-01-14T04:19:31.868Z,93597.35
2019-01-14T04:21:59.477Z,93591.69
2019-01-14T04:24:26.970Z,93581.80
2019-01-14T04:26:54.458Z,93572.94
2019-01-14T04:29:22.047Z,93587.52
2019-01-14T04:31:49.555Z,93573.04
2019-01-14T04:34:17.012Z,93574.55
2019-01-14T04:36:44.569Z,93577.73
2019-01-14T04:39:12.422Z,93567.24
2019-01-14T04:41:39.878Z,93570.58
2019-01-14T04:44:07.459Z,93570.39
2019-01-14T04:46:34.958Z,93566.41
2019-01-14T04:49:02.467Z,93560.91
2019-01-14T04:51:29.962Z,93556.53
2019-01-14T04:53:57.473Z,93565.25
2019-01-14T04:56:25.037Z,93564.88
2019-01-14T04:58:52.555Z,93567.74
2019-01-14T05:01:20.038Z,93565.49
2019-01-14T05:03:47.551Z,93557.86
2019-01-14T05:06:15.524Z,93565.81
2019-01-14T05:08:43.304Z,93545.13
2019-01-14T05:11:10.881Z,93541.83
2019-01-14T05:13:38.467Z,93541.83
2019-01-14T05:16:05.868Z,93540.77
2019-01-14T05:18:33.362Z,93527.14
2019-01-14T05:21:00.899Z,93527.14
2019-01-14T05:23:28.571Z,93526.50
2019-01-14T05:25:56.176Z,93543.26
2019-01-14T05:28:23.770Z,93549.84
2019-01-14T05:30:51.355Z,93542.75
2019-01-14T05:33:19.050Z,93542.75
2019-01-14T05:35:46.573Z,93554.61
2019-01-14T05:38:14.154Z,93562.56
2019-01-14T05:40:41.549Z,93548.83
2019-01-14T05:43:09.059Z,93554.83
2019-01-14T05:45:36.720Z,93570.55
2019-01-14T05:48:04.461Z,93576.84
2019-01-14T05:50:32.638Z,93577.16
2019-01-14T05:53:00.169Z,93569.15
2019-01-14T05:55:27.571Z,93581.44
2019-01-14T05:57:55.058Z,93575.70
2019-01-14T06:00:26.379Z,93560.87
2019-01-14T06:02:54.743Z,93578.80
2019-01-14T06:05:22.788Z,93579.62
2019-01-14T06:07:50.819Z,93565.72
2019-01-14T06:10:18.522Z,93562.35
2019-01-14T06:12:46.034Z,93563.49
2019-01-14T06:15:14.870Z,93556.53
2019-01-14T06:17:42.446Z,93579.49
2019-01-14T06:20:11.848Z,93573.98
2019-01-14T06:22:39.357Z,93582.69
2019-01-14T06:25:08.548Z,93580.98
2019-01-14T06:27:36.196Z,93577.59
2019-01-14T06:30:07.133Z,93570.56
2019-01-14T06:32:34.686Z,93560.34
2019-01-14T06:35:02.174Z,93551.84
2019-01-14T06:37:29.656Z,93535.64
2019-01-14T06:39:57.287Z,93540.91
2019-01-14T06:42:24.910Z,93516.23
2019-01-14T06:44:52.793Z,93525.69
2019-01-14T06:47:21.357Z,93525.69
2019-01-14T06:49:48.970Z,93517.92
2019-01-14T06:52:16.476Z,93538.34
2019-01-14T06:54:43.964Z,93541.81
2019-01-14T06:57:11.606Z,93537.59
2019-01-14T06:59:39.314Z,93553.26
2019-01-14T07:02:06.957Z,93557.77
2019-01-14T07:04:34.529Z,93559.77
2019-01-14T07:07:02.235Z,93557.30
2019-01-14T07:09:30.130Z,93562.96
2019-01-14T07:11:58.016Z,93573.30
2019-01-14T07:14:25.684Z,93577.95
2019-01-14T07:16:53.320Z,93578.70
2019-01-14T07:19:20.815Z,93570.41
2019-01-14T07:21:48.944Z,93573.53
2019-01-14T07:24:16.691Z,93569.88
2019-01-14T07:26:44.481Z,93565.05
2019-01-14T07:29:11.911Z,93552.23
2019-01-14T07:31:39.586Z,93546.03
2019-01-14T07:34:07.306Z,93551.41
2019-01-14T07:36:34.896Z,93545.67
2019-01-14T07:39:04.479Z,93553.27
2019-01-14T07:41:31.946Z,93555.91
2019-01-14T07:43:59.539Z,93565.09
2019-01-14T07:46:27.030Z,93551.84
2019-01-14T07:48:54.626Z,93543.98
2019-01-14T07:51:22.256Z,93545.87
2019-01-14T07:53:49.978Z,93549.64
2019-01-14T07:56:17.872Z,93551.17
2019-01-14T07:58:45.948Z,93546.10
2019-01-14T08:01:13.805Z,93560.51
2019-01-14T08:03:41.239Z,93558.91
2019-01-14T08:06:08.762Z,93548.55
2019-01-14T08:08:36.311Z,93560.24
2019-01-14T08:11:03.851Z,93562.22
2019-01-14T08:13:31.463Z,93565.12
2019-01-14T08:15:59.017Z,93566.34
2019-01-14T08:18:26.423Z,93570.22
2019-01-14T08:20:54.173Z,93571.82
2019-01-14T08:23:21.699Z,93580.34
2019-01-14T08:25:49.388Z,93573.65
2019-01-14T08:28:16.926Z,93582.42
2019-01-14T08:30:44.447Z,93570.41
2019-01-14T08:33:11.981Z,93568.31
2019-01-14T08:35:39.702Z,93567.70
2019-01-14T08:38:07.452Z,93567.04
2019-01-14T08:40:35.226Z,93584.37
2019-01-14T08:43:02.795Z,93580.17
2019-01-14T08:45:30.261Z,93580.98
2019-01-14T08:47:57.853Z,93568.98
2019-01-14T08:50:25.670Z,93581.08
2019-01-14T08:52:53.452Z,93574.22
2019-01-14T08:55:21.226Z,93583.45
2019-01-14T08:57:54.457Z,93577.41
2019-01-14T09:00:20.596Z,93585.84
2019-01-14T09:02:48.158Z,93579.25
2019-01-14T09:05:16.087Z,93589.94
2019-01-14T09:07:43.873Z,93588.15
2019-01-14T09:10:14.647Z,93597.25
2019-01-14T09:12:42.173Z,93586.83
2019-01-14T09:15:11.251Z,93584.58
2019-01-14T09:17:38.964Z,93570.34
2019-01-14T09:20:10.764Z,93567.55
2019-01-14T09:22:38.720Z,93566.41
2019-01-14T09:25:06.653Z,93578.95
2019-01-14T09:27:34.240Z,93566.11
2019-01-14T09:30:01.792Z,93560.80
2019-01-14T09:32:29.272Z,93558.06
2019-01-14T09:34:56.696Z,93560.45
2019-01-14T09:37:24.364Z,93564.55
2019-01-14T09:39:52.042Z,93561.68
2019-01-14T09:42:19.733Z,93546.59
2019-01-14T09:44:47.343Z,93551.13
2019-01-14T09:47:15.190Z,93546.98
2019-01-14T09:49:45.590Z,93559.47
2019-01-14T09:52:12.417Z,93556.58
2019-01-14T09:54:39.905Z,93547.03
2019-01-14T09:57:07.522Z,93542.71
2019-01-14T09:59:35.178Z,93542.59
2019-01-14T10:02:02.797Z,93547.41
2019-01-14T10:04:30.358Z,93550.83
2019-01-14T10:06:57.927Z,93541.53
2019-01-14T10:09:25.415Z,93544.63
2019-01-14T10:11:52.934Z,93525.99
2019-01-14T10:14:20.756Z,93544.14
2019-01-14T10:16:48.615Z,93544.87
2019-01-14T10:19:16.384Z,93539.03
2019-01-14T10:21:43.915Z,93542.95
2019-01-14T10:24:11.622Z,93526.08
2019-01-14T10:26:39.230Z,93529.06
2019-01-14T10:29:06.907Z,93516.61
2019-01-14T10:31:34.524Z,93528.69
2019-01-14T10:34:02.000Z,93526.42
2019-01-14T10:36:29.667Z,93519.09
2019-01-14T10:38:57.081Z,93513.36
2019-01-14T10:41:24.648Z,93524.22
2019-01-14T10:43:52.175Z,93504.21
2019-01-14T10:46:19.816Z,93513.38
2019-01-14T10:48:47.408Z,93509.05
2019-01-14T10:51:15.155Z,93500.00
2019-01-14T10:53:42.749Z,93499.64
2019-01-14T10:56:10.608Z,93501.23
2019-01-14T10:58:38.097Z,93500.25
2019-01-14T11:01:05.785Z,93496.07
2019-01-14T11:03:33.427Z,93488.45
2019-01-14T11:06:01.283Z,93492.60
2019-01-14T11:08:29.537Z,93481.69
2019-01-14T11:10:57.015Z,93482.58
2019-01-14T11:13:24.635Z,93483.92
2019-01-14T11:15:52.070Z,93485.27
2019-01-14T11:18:19.599Z,93486.53
2019-01-14T11:20:47.392Z,93483.25
2019-01-14T11:23:14.951Z,93486.42
2019-01-14T11:25:42.618Z,93480.69
2019-01-14T11:28:10.216Z,93477.19
2019-01-14T11:30:37.846Z,93471.48
2019-01-14T11:33:05.575Z,93468.47
2019-01-14T11:35:35.136Z,93470.63
2019-01-14T11:38:02.962Z,93468.59
2019-01-14T11:40:38.921Z,93472.95
2019-01-14T11:43:06.907Z,93479.86
2019-01-14T11:45:34.514Z,93482.44
2019-01-14T11:48:02.496Z,93480.81
2019-01-14T11:50:30.077Z,93482.55
2019-01-14T11:52:57.534Z,93480.80
2019-01-14T11:55:25.194Z,93476.17
2019-01-14T11:57:52.645Z,93464.52
2019-01-14T12:00:22.523Z,93480.22
2019-01-14T12:02:50.062Z,93464.41
2019-01-14T12:05:17.716Z,93476.61
2019-01-14T12:07:45.410Z,93468.23
2019-01-14T12:10:13.193Z,93470.18
2019-01-14T12:12:40.726Z,93465.80
2019-01-14T12:15:15.297Z,93471.22
2019-01-14T12:17:42.906Z,93476.20
2019-01-14T12:20:12.320Z,93468.59
2019-01-14T12:22:40.080Z,93472.88
2019-01-14T12:25:08.564Z,93477.64
2019-01-14T12:27:36.487Z,93473.75
2019-01-14T12:30:09.307Z,93472.80
2019-01-14T12:32:36.829Z,93460.83
2019-01-14T12:35:04.937Z,93471.95
2019-01-14T12:37:32.675Z,93477.55
2019-01-14T12:40:00.233Z,93474.48
2019-01-14T12:42:27.738Z,93469.43
2019-01-14T12:44:55.354Z,93481.41
2019-01-14T12:47:22.959Z,93471.41
2019-01-14T12:49:50.482Z,93474.81
2019-01-14T12:52:17.930Z,93461.59
2019-01-14T12:54:45.512Z,93466.86
2019-01-14T12:57:13.028Z,93463.50
2019-01-14T12:59:40.412Z,93464.98
2019-01-14T13:02:08.041Z,93471.85
2019-01-14T13:04:35.711Z,93469.71
2019-01-14T13:07:03.283Z,93461.79
2019-01-14T13:09:30.954Z,93465.07
2019-01-14T13:11:58.689Z,93467.83
2019-01-14T13:14:26.243Z,93470.09
2019-01-14T13:16:54.136Z,93477.82
2019-01-14T13:19:21.840Z,93492.05
2019-01-14T13:21:49.383Z,93474.48
2019-01-14T13:24:16.967Z,93471.69
2019-01-14T13:26:44.615Z,93476.75
2019-01-14T13:29:15.267Z,93478.95
2019-01-14T13:31:41.922Z,93478.08
2019-01-14T13:34:09.814Z,93477.77
2019-01-14T13:36:37.882Z,93471.80
2019-01-14T13:39:08.540Z,93469.97
2019-01-14T13:41:36.056Z,93471.59
2019-01-14T13:44:03.918Z,93474.53
2019-01-14T13:46:31.546Z,93466.34
2019-01-14T13:48:59.054Z,93465.19
2019-01-14T13:51:26.711Z,93468.37
2019-01-14T13:53:54.287Z,93468.06
2019-01-14T13:56:22.121Z,93472.02
2019-01-14T13:58:49.651Z,93475.92
2019-01-14T14:01:17.285Z,93479.28
2019-01-14T14:03:44.883Z,93484.34
2019-01-14T14:06:12.554Z,93479.72
2019-01-14T14:08:40.661Z,93482.78
2019-01-14T14:11:08.545Z,93468.95
2019-01-14T14:13:35.970Z,93467.13
2019-01-14T14:16:03.657Z,93472.89
2019-01-14T14:18:31.146Z,93482.02
2019-01-14T14:20:58.745Z,93470.56
2019-01-14T14:23:26.184Z,93482.64
2019-01-14T14:25:54.065Z,93483.77
2019-01-14T14:28:21.639Z,93483.25
2019-01-14T14:30:49.335Z,93480.09
2019-01-14T14:33:16.887Z,93497.86
2019-01-14T14:35:44.310Z,93510.61
2019-01-14T14:38:12.486Z,93505.45
2019-01-14T14:40:39.973Z,93512.63
2019-01-14T14:43:07.395Z,93523.56
2019-01-14T14:45:35.050Z,93523.41
2019-01-14T14:48:02.795Z,93519.27
2019-01-14T14:50:30.494Z,93526.00
2019-01-14T14:52:58.107Z,93529.00
2019-01-14T14:55:26.663Z,93534.73
2019-01-14T14:57:54.399Z,93534.19
2019-01-14T15:00:22.686Z,93546.55
2019-01-14T15:02:50.506Z,93536.43
2019-01-14T15:05:18.380Z,93532.23
2019-01-14T15:07:46.197Z,93541.64
2019-01-14T15:10:15.549Z,93548.03
2019-01-14T15:12:43.226Z,93548.08
2019-01-14T15:15:12.500Z,93556.80
2019-01-14T15:17:40.163Z,93557.42
2019-01-14T15:20:10.756Z,93533.87
2019-01-14T15:22:38.302Z,93533.95
2019-01-14T15:25:05.902Z,93537.69
2019-01-14T15:27:33.456Z,93547.84
2019-01-14T15:30:00.985Z,93557.17
2019-01-14T15:32:28.584Z,93549.14
2019-01-14T15:34:56.037Z,93548.17
2019-01-14T15:37:24.025Z,93557.02
2019-01-14T15:39:51.606Z,93558.84
2019-01-14T15:42:20.177Z,93563.01
2019-01-14T15:44:47.667Z,93563.38
2019-01-14T15:47:15.207Z,93573.27
2019-01-14T15:49:42.960Z,93574.31
2019-01-14T15:52:10.587Z,93573.70
2019-01-14T15:54:38.134Z,93581.89
2019-01-14T15:57:06.000Z,93574.42
2019-01-14T15:59:33.594Z,93572.46
2019-01-14T16:02:01.714Z,93575.75
2019-01-14T16:04:29.333Z,93591.33
2019-01-14T16:06:56.954Z,93587.75
2019-01-14T16:09:24.550Z,93594.80
2019-01-14T16:11:52.173Z,93594.21
2019-01-14T16:14:19.754Z,93597.06
2019-01-14T16:16:47.374Z,93593.45
2019-01-14T16:19:14.938Z,93605.37
2019-01-14T16:21:42.524Z,93604.62
2019-01-14T16:24:10.255Z,93610.11
2019-01-14T16:26:37.864Z,93601.80
2019-01-14T16:29:05.907Z,93610.12
2019-01-14T16:31:33.428Z,93622.20
2019-01-14T16:34:01.100Z,93620.58
2019-01-14T16:36:28.639Z,93625.05
2019-01-14T16:38:56.254Z,93629.89
2019-01-14T16:41:23.708Z,93624.92
2019-01-14T16:43:51.323Z,93628.34
2019-01-14T16:46:18.819Z,93624.66
2019-01-14T16:48:46.335Z,93624.92
2019-01-14T16:51:14.009Z,93632.83
2019-01-14T16:53:41.645Z,93629.63
2019-01-14T16:56:09.154Z,93627.02
2019-01-14T16:58:36.741Z,93626.89
2019-01-14T17:01:04.363Z,93628.98
2019-01-14T17:03:31.779Z,93626.11
2019-01-14T17:05:59.415Z,93619.03
2019-01-14T17:08:26.948Z,93629.51
2019-01-14T17:10:54.657Z,93631.42
2019-01-14T17:13:22.190Z,93644.22
2019-01-14T17:15:49.753Z,93628.57
2019-01-14T17:18:17.331Z,93628.25
2019-01-14T17:20:44.817Z,93627.81
2019-01-14T17:23:12.240Z,93627.41
2019-01-14T17:25:39.753Z,93633.80
2019-01-14T17:28:07.393Z,93631.97
2019-01-14T17:30:34.957Z,93641.22
2019-01-14T17:33:02.700Z,93643.02
2019-01-14T17:35:30.249Z,93642.94
2019-01-14T17:37:57.909Z,93646.79
2019-01-14T17:40:32.305Z,93647.30
2019-01-14T17:42:56.334Z,93653.09
2019-01-14T17:45:23.940Z,93644.67
2019-01-14T17:47:52.765Z,93646.80
2019-01-14T17:50:20.382Z,93647.52
2019-01-14T17:52:47.896Z,93645.97
2019-01-14T17:55:15.572Z,93648.48
2019-01-14T17:57:42.954Z,93651.57
2019-01-14T18:00:16.292Z,93659.36
2019-01-14T18:02:43.896Z,93662.47
2019-01-14T18:05:11.929Z,93665.80
2019-01-14T18:07:46.962Z,93665.98
2019-01-14T18:10:15.667Z,93668.05
2019-01-14T18:12:43.452Z,93687.27
2019-01-14T18:15:11.177Z,93670.30
2019-01-14T18:17:38.826Z,93664.66
2019-01-14T18:20:08.377Z,93658.84
2019-01-14T18:22:36.056Z,93641.86
2019-01-14T18:25:04.734Z,93665.17
2019-01-14T18:27:32.238Z,93665.14
2019-01-14T18:29:59.706Z,93679.67
2019-01-14T18:32:27.176Z,93681.98
2019-01-14T18:34:55.039Z,93679.34
2019-01-14T18:37:22.974Z,93677.80
2019-01-14T18:39:50.876Z,93684.12
2019-01-14T18:42:18.511Z,93684.48
2019-01-14T18:44:47.228Z,93683.00
2019-01-14T18:47:14.979Z,93692.36
2019-01-14T18:49:42.490Z,93699.52
2019-01-14T18:52:09.975Z,93691.15
2019-01-14T18:54:37.528Z,93688.73
2019-01-14T18:57:05.100Z,93703.63
2019-01-14T18:59:32.667Z,93699.59
2019-01-14T19:02:00.328Z,93706.22
2019-01-14T19:04:27.940Z,93709.14
2019-01-14T19:06:55.735Z,93713.41
2019-01-14T19:09:23.604Z,93710.32
2019-01-14T19:11:51.501Z,93709.53
2019-01-14T19:14:19.408Z,93720.41
2019-01-14T19:16:47.246Z,93718.65
2019-01-14T19:19:15.049Z,93714.91
2019-01-14T19:21:43.030Z,93716.97
2019-01-14T19:24:10.753Z,93720.77
2019-01-14T19:26:38.330Z,93724.42
2019-01-14T19:29:06.009Z,93718.67
2019-01-14T19:31:33.738Z,93725.33
2019-01-14T19:34:01.233Z,93715.14
2019-01-14T19:36:28.935Z,93719.78
2019-01-14T19:38:56.426Z,93717.98
2019-01-14T19:41:23.914Z,93718.84
2019-01-14T19:43:51.431Z,93717.95
2019-01-14T19:46:19.225Z,93715.22
2019-01-14T19:48:46.848Z,93721.30
2019-01-14T19:51:15.059Z,93724.30
2019-01-14T19:53:42.927Z,93717.55
2019-01-14T19:56:10.745Z,93724.83
2019-01-14T19:58:38.411Z,93736.00
2019-01-14T20:01:06.053Z,93730.75
2019-01-14T20:03:33.656Z,93747.79
2019-01-14T20:06:02.110Z,93739.83
2019-01-14T20:08:29.862Z,93745.13
2019-01-14T20:10:57.534Z,93736.95
2019-01-14T20:13:25.119Z,93746.00
2019-01-14T20:15:52.804Z,93741.73
2019-01-14T20:18:20.260Z,93750.42
2019-01-14T20:20:47.864Z,93749.09
2019-01-14T20:23:15.384Z,93755.23
2019-01-14T20:25:42.843Z,93758.56
2019-01-14T20:28:10.499Z,93752.34
2019-01-14T20:30:38.065Z,93756.18
2019-01-14T20:33:06.344Z,93756.25
2019-01-14T20:35:34.164Z,93753.68
2019-01-14T20:38:01.723Z,93757.77
2019-01-14T20:40:29.528Z,93763.23
2019-01-14T20:42:57.625Z,93766.70
2019-01-14T20:45:25.726Z,93770.20
2019-01-14T20:47:53.580Z,93767.14
2019-01-14T20:50:21.631Z,93769.89
2019-01-14T20:52:49.611Z,93768.84
2019-01-14T20:55:17.235Z,93771.16
2019-01-14T20:57:45.121Z,93770.06
2019-01-14T21:00:24.837Z,93769.22
2019-01-14T21:02:52.880Z,93785.08
2019-01-14T21:05:21.955Z,93785.94
2019-01-14T21:07:49.550Z,93784.99
2019-01-14T21:10:17.636Z,93780.20
2019-01-14T21:12:45.142Z,93789.84
2019-01-14T21:15:13.287Z,93772.66
2019-01-14T21:17:40.925Z,93782.94
2019-01-14T21:20:18.058Z,93780.34
2019-01-14T21:22:45.680Z,93785.78
2019-01-14T21:25:13.607Z,93780.01
2019-01-14T21:27:41.146Z,93786.63
2019-01-14T21:30:12.044Z,93795.24
2019-01-14T21:32:40.829Z,93788.46
2019-01-14T21:35:10.705Z,93789.42
2019-01-14T21:37:38.381Z,93794.21
2019-01-14T21:40:07.873Z,93788.96
2019-01-14T21:42:35.373Z,93795.69
2019-01-14T21:45:03.776Z,93797.69
2019-01-14T21:47:32.744Z,93799.98
2019-01-14T21:50:00.583Z,93791.00
2019-01-14T21:52:28.154Z,93786.06
2019-01-14T21:54:55.675Z,93809.06
2019-01-14T21:57:23.237Z,93805.27
2019-01-14T21:59:50.761Z,93810.06
2019-01-14T22:02:18.403Z,93792.22
2019-01-14T22:04:45.934Z,93803.23
2019-01-14T22:07:13.555Z,93790.31
2019-01-14T22:09:41.133Z,93792.54
2019-01-14T22:12:08.775Z,93805.69
2019-01-14T22:14:36.174Z,93817.23
2019-01-14T22:17:03.886Z,93819.97
2019-01-14T22:19:31.489Z,93811.25
2019-01-14T22:21:58.902Z,93815.84
2019-01-14T22:24:26.495Z,93826.94
2019-01-14T22:26:55.121Z,93823.64
2019-01-14T22:29:22.725Z,93819.69
2019-01-14T22:31:50.198Z,93816.26
2019-01-14T22:34:17.678Z,93820.81
2019-01-14T22:36:45.202Z,93826.24
2019-01-14T22:39:12.736Z,93829.38
2019-01-14T22:41:45.669Z,93826.41
2019-01-14T22:44:09.670Z,93827.09
2019-01-14T22:46:37.206Z,93826.39
2019-01-14T22:49:04.838Z,93817.63
2019-01-14T22:51:32.315Z,93825.21
2019-01-14T22:53:59.841Z,93819.30
2019-01-14T22:56:27.311Z,93816.23
2019-01-14T22:58:54.999Z,93819.69
2019-01-14T23:01:34.740Z,93827.66
2019-01-14T23:04:02.279Z,93811.73
2019-01-14T23:06:29.846Z,93809.75
2019-01-14T23:08:57.641Z,93807.33
2019-01-14T23:11:25.229Z,93809.02
2019-01-14T23:13:52.714Z,93804.86
2019-01-14T23:16:20.233Z,93799.67
2019-01-14T23:18:47.684Z,93804.02
2019-01-14T23:21:15.274Z,93817.07
2019-01-14T23:23:42.852Z,93817.61
2019-01-14T23:26:10.344Z,93810.53
2019-01-14T23:28:37.797Z,93819.73
2019-01-14T23:31:05.339Z,93817.24
2019-01-14T23:33:32.862Z,93831.86
2019-01-14T23:36:00.346Z,93841.05
2019-01-14T23:38:27.918Z,93846.70
2019-01-14T23:40:55.431Z,93848.88
2019-01-14T23:43:23.060Z,93857.64
2019-01-14T23:45:50.637Z,93865.45
2019-01-14T23:48:18.191Z,93852.80
2019-01-14T23:50:45.668Z,93866.59
2019-01-14T23:53:13.215Z,93852.61
2019-01-14T23:55:40.762Z,93857.60
2019-01-14T23:58:08.270Z,93855.92
